Arcola, MO

9:46 AM CST on January 28, 2015 (GMT -0600)
Atkinson Municipal | Change Station
CLOSE
Current Station
Airport
Location: Pittsburg,
Elevation: 951 ft
Nearby Weather Stations
Active Advisory: Special Statement

Elev 951 ft 37.45 °N, 94.73 °W | Updated 11 minutes ago

Clear
Clear
59 °F
Feels Like 59 °F
N
18
Wind Variable Wind from SSW
Gusts 24 mph

Today
High -- | Low -- °F
--% Chance of Precip.
Yesterday
High -- | Low -- °F
Precip. -- in
7:22 AM 5:34 PM
Waxing Gibbous, 65% visible
Pressure 29.99 in
Visibility 10.0 miles
Clouds Clear
Dew Point 40 °F
Humidity 49%
Rainfall 0.00 in
Snow Depth Not available.
UV 2 out of 12
Pollen 3.30 out of 12
Air Quality Not available.
Flu Activity Not available.
METAR KPTS 281535Z AUTO 20016G21KT 10SM CLR 15/04 A2999 RMK AO2 T01500043

More Conditions Fewer Conditions

Pressure 29.99 in
Visibility 10.0 miles
Clouds Clear
Dew Point 40 °F
Humidity 49%
Rainfall 0.00 in
Snow Depth Not available.
UV 2 out of 12
Pollen 3.30 out of 12
Air Quality Not available.
Flu Activity Not available.
METAR KPTS 281535Z AUTO 20016G21KT 10SM CLR 15/04 A2999 RMK AO2 T01500043

More Conditions Fewer Conditions

10-Day Weather Forecast

Almanac

Astronomy

Jan. 28, 2015 Rise Set
Actual Time
Civil Twilight
Nautical Twilight
Astronomical Twilight
Moon
Length of Visible Light
Length of Day
Tomorrow will be .
, % of the Moon is Illuminated

Today's Extremes

State Highs State Lows

Community

WunderPhotos

Upload Photos

1,791,177 photos uploaded!

WunderBlogs® & News

Nearby

Air Quality

  Air Quality AQ Index Pollutant
Not available.

Snow Depth

Station Depth Elevation

Earthquake Activity

City Distance Mag. Time & Date
Minimum magnitude displayed is 2.5.

Coastal Water Temperatures

Place Temperature

Nearby Weather Stations